createdAt,value
2019-05-05T00:01:00.132Z,75.60
2019-05-05T00:03:35.367Z,75.86
2019-05-05T00:06:07.638Z,75.83
2019-05-05T00:08:39.087Z,75.67
2019-05-05T00:11:11.255Z,75.88
2019-05-05T00:13:50.076Z,76.29
2019-05-05T00:16:35.177Z,76.43
2019-05-05T00:19:06.497Z,76.67
2019-05-05T00:21:37.230Z,76.60
2019-05-05T00:24:07.550Z,76.43
2019-05-05T00:26:38.180Z,76.41
2019-05-05T00:29:08.813Z,76.51
2019-05-05T00:31:39.647Z,77.07
2019-05-05T00:34:10.382Z,76.98
2019-05-05T00:36:40.810Z,77.22
2019-05-05T00:39:12.439Z,77.51
2019-05-05T00:41:44.768Z,77.89
2019-05-05T00:44:15.351Z,77.14
2019-05-05T00:46:51.321Z,77.30
2019-05-05T00:49:21.852Z,77.52
2019-05-05T00:51:54.565Z,78.08
2019-05-05T00:54:25.053Z,77.87
2019-05-05T00:56:55.685Z,77.42
2019-05-05T00:59:30.516Z,77.45
2019-05-05T01:02:04.613Z,78.02
2019-05-05T01:04:39.874Z,77.95
2019-05-05T01:07:11.305Z,77.87
2019-05-05T01:09:42.052Z,77.88
2019-05-05T01:12:14.829Z,77.83
2019-05-05T01:14:45.665Z,77.34
2019-05-05T01:17:16.402Z,77.43
2019-05-05T01:20:00.281Z,77.40
2019-05-05T01:22:22.152Z,76.80
2019-05-05T01:24:55.191Z,76.90
2019-05-05T01:27:25.650Z,76.97
2019-05-05T01:29:56.188Z,77.09
2019-05-05T01:32:28.374Z,77.76
2019-05-05T01:34:58.702Z,78.09
2019-05-05T01:37:30.867Z,78.09
2019-05-05T01:40:10.825Z,78.59
2019-05-05T01:42:41.242Z,78.89
2019-05-05T01:45:11.735Z,79.21
2019-05-05T01:47:45.227Z,79.37
2019-05-05T01:50:20.659Z,79.39
2019-05-05T01:52:46.919Z,79.35
2019-05-05T01:55:17.470Z,79.35
2019-05-05T01:57:48.173Z,78.95
2019-05-05T02:00:18.627Z,78.57
2019-05-05T02:02:49.537Z,78.53
2019-05-05T02:05:20.092Z,78.45
2019-05-05T02:07:50.932Z,78.41
2019-05-05T02:10:21.456Z,78.52
2019-05-05T02:12:51.888Z,78.45
2019-05-05T02:15:24.491Z,78.40
2019-05-05T02:17:55.166Z,78.08
2019-05-05T02:20:36.241Z,77.73
2019-05-05T02:23:07.208Z,77.72
2019-05-05T02:25:37.737Z,77.59
2019-05-05T02:28:08.437Z,78.27
2019-05-05T02:30:49.964Z,78.33
2019-05-05T02:33:21.712Z,78.43
2019-05-05T02:35:55.707Z,78.78
2019-05-05T02:38:26.529Z,78.98
2019-05-05T02:40:57.165Z,78.95
2019-05-05T02:43:28.843Z,78.77
2019-05-05T02:46:17.709Z,78.40
2019-05-05T02:48:49.868Z,77.64
2019-05-05T02:51:25.489Z,77.33
2019-05-05T02:53:54.785Z,77.36
2019-05-05T02:56:28.415Z,77.25
2019-05-05T02:59:04.210Z,75.69
2019-05-05T03:01:39.515Z,75.45
2019-05-05T03:04:10.345Z,74.15
2019-05-05T03:06:43.740Z,73.45
2019-05-05T03:09:17.134Z,71.93
2019-05-05T03:11:49.177Z,71.45
2019-05-05T03:14:20.317Z,70.92
2019-05-05T03:16:51.457Z,72.05
2019-05-05T03:19:23.823Z,71.88
2019-05-05T03:21:55.309Z,70.75
2019-05-05T03:24:26.039Z,70.56
2019-05-05T03:26:58.339Z,71.25
2019-05-05T03:29:29.568Z,70.94
2019-05-05T03:32:00.084Z,70.32
2019-05-05T03:34:30.714Z,70.29
2019-05-05T03:37:01.752Z,70.44
2019-05-05T03:39:34.047Z,70.13
2019-05-05T03:42:15.814Z,70.52
2019-05-05T03:44:48.599Z,70.49
2019-05-05T03:47:19.126Z,69.87
2019-05-05T03:49:49.729Z,69.87
2019-05-05T03:52:20.563Z,68.87
2019-05-05T03:54:51.323Z,69.12
2019-05-05T03:57:22.160Z,69.63
2019-05-05T03:59:54.761Z,69.05
2019-05-05T04:02:26.905Z,69.26
2019-05-05T04:05:08.389Z,68.99
2019-05-05T04:07:39.327Z,68.84
2019-05-05T04:10:10.265Z,69.08
2019-05-05T04:12:43.379Z,69.02
2019-05-05T04:15:14.160Z,68.44
2019-05-05T04:17:49.426Z,68.44
2019-05-05T04:20:21.565Z,67.55
2019-05-05T04:22:54.073Z,67.66
2019-05-05T04:25:24.426Z,66.75
2019-05-05T04:27:55.022Z,66.74
2019-05-05T04:30:25.654Z,65.66
2019-05-05T04:32:56.360Z,65.68
2019-05-05T04:35:26.917Z,65.31
2019-05-05T04:37:57.341Z,64.84
2019-05-05T04:40:27.872Z,63.89
2019-05-05T04:42:58.603Z,63.66
2019-05-05T04:45:29.235Z,62.80
2019-05-05T04:48:04.678Z,62.48
2019-05-05T04:50:44.091Z,60.96
2019-05-05T04:53:18.649Z,60.67
2019-05-05T04:55:49.372Z,59.48
2019-05-05T04:58:19.799Z,59.94
2019-05-05T05:00:50.606Z,58.52
2019-05-05T05:03:25.874Z,57.22
2019-05-05T05:06:00.977Z,56.86
2019-05-05T05:08:31.433Z,56.53
2019-05-05T05:11:03.642Z,56.82
2019-05-05T05:13:34.870Z,56.28
2019-05-05T05:16:05.478Z,55.21
2019-05-05T05:18:36.211Z,57.15
2019-05-05T05:21:06.944Z,55.59
2019-05-05T05:23:37.679Z,55.93
2019-05-05T05:26:08.309Z,54.89
2019-05-05T05:28:39.041Z,55.03
2019-05-05T05:31:10.287Z,53.81
2019-05-05T05:33:40.923Z,52.95
2019-05-05T05:36:11.556Z,52.54
2019-05-05T05:38:44.355Z,51.77
2019-05-05T05:41:17.110Z,52.77
2019-05-05T05:43:55.218Z,51.91
2019-05-05T05:46:33.476Z,50.75
2019-05-05T05:49:18.051Z,51.11
2019-05-05T05:51:49.003Z,50.69
2019-05-05T05:54:20.872Z,51.00
2019-05-05T05:56:53.667Z,51.98
2019-05-05T05:59:24.923Z,51.48
2019-05-05T06:02:09.205Z,50.01
2019-05-05T06:04:28.528Z,49.95
2019-05-05T06:06:58.964Z,49.73
2019-05-05T06:09:29.478Z,50.55
2019-05-05T06:12:00.087Z,49.39
2019-05-05T06:14:30.642Z,49.10
2019-05-05T06:17:04.307Z,49.52
2019-05-05T06:19:33.988Z,49.29
2019-05-05T06:22:04.579Z,48.28
2019-05-05T06:24:35.108Z,48.79
2019-05-05T06:27:05.640Z,47.71
2019-05-05T06:29:37.497Z,48.30
2019-05-05T06:32:08.235Z,47.35
2019-05-05T06:34:38.758Z,46.67
2019-05-05T06:37:09.286Z,47.06
2019-05-05T06:39:40.134Z,46.77
2019-05-05T06:42:15.974Z,45.64
2019-05-05T06:44:48.347Z,46.06
2019-05-05T06:47:20.826Z,45.85
2019-05-05T06:49:51.250Z,45.90
2019-05-05T06:52:22.287Z,45.92
2019-05-05T06:54:54.274Z,45.98
2019-05-05T06:57:24.986Z,45.93
2019-05-05T06:59:55.714Z,45.97
2019-05-05T07:02:26.550Z,46.42
2019-05-05T07:04:57.057Z,46.07
2019-05-05T07:07:27.610Z,45.73
2019-05-05T07:09:58.343Z,45.01
2019-05-05T07:12:28.872Z,44.62
2019-05-05T07:14:59.501Z,44.27
2019-05-05T07:17:29.930Z,44.32
2019-05-05T07:20:00.665Z,44.42
2019-05-05T07:22:31.292Z,44.94
2019-05-05T07:25:01.923Z,44.13
2019-05-05T07:27:33.820Z,44.58
2019-05-05T07:30:06.054Z,44.61
2019-05-05T07:32:36.680Z,43.87
2019-05-05T07:35:09.156Z,43.88
2019-05-05T07:37:39.683Z,43.93
2019-05-05T07:40:10.388Z,44.12
2019-05-05T07:42:43.971Z,43.80
2019-05-05T07:45:22.483Z,43.79
2019-05-05T07:47:47.679Z,42.96
2019-05-05T07:50:28.988Z,42.65
2019-05-05T07:52:51.225Z,42.69
2019-05-05T07:55:23.710Z,42.49
2019-05-05T07:57:54.122Z,42.87
2019-05-05T08:00:24.578Z,42.55
2019-05-05T08:02:55.700Z,42.41
2019-05-05T08:05:26.045Z,42.35
2019-05-05T08:07:56.574Z,42.09
2019-05-05T08:10:27.103Z,42.40
2019-05-05T08:12:57.630Z,42.12
2019-05-05T08:15:28.989Z,42.50
2019-05-05T08:18:04.433Z,41.72
2019-05-05T08:20:36.278Z,42.16
2019-05-05T08:23:09.657Z,42.12
2019-05-05T08:25:45.356Z,41.59
2019-05-05T08:28:19.614Z,41.55
2019-05-05T08:30:57.532Z,41.42
2019-05-05T08:33:28.072Z,41.16
2019-05-05T08:35:59.624Z,40.68
2019-05-05T08:38:31.677Z,40.84
2019-05-05T08:41:04.412Z,41.54
2019-05-05T08:43:35.611Z,41.53
2019-05-05T08:46:06.141Z,41.04
2019-05-05T08:48:36.977Z,41.06
2019-05-05T08:51:07.510Z,40.80
2019-05-05T08:53:44.876Z,40.76
2019-05-05T08:56:10.403Z,40.66
2019-05-05T08:58:43.678Z,40.17
2019-05-05T09:01:14.920Z,40.61
2019-05-05T09:03:45.679Z,39.70
2019-05-05T09:06:16.414Z,38.51
2019-05-05T09:08:47.245Z,37.28
2019-05-05T09:11:17.988Z,37.25
2019-05-05T09:13:48.814Z,37.34
2019-05-05T09:16:19.546Z,36.77
2019-05-05T09:18:57.827Z,36.23
2019-05-05T09:21:28.801Z,35.83
2019-05-05T09:24:03.202Z,36.32
2019-05-05T09:26:47.157Z,36.87
2019-05-05T09:29:27.926Z,37.59
2019-05-05T09:31:58.561Z,36.99
2019-05-05T09:34:29.396Z,36.59
2019-05-05T09:37:00.026Z,36.93
2019-05-05T09:39:30.759Z,36.47
2019-05-05T09:42:01.356Z,35.27
2019-05-05T09:44:34.467Z,34.93
2019-05-05T09:47:05.522Z,35.14
2019-05-05T09:49:37.174Z,34.79
2019-05-05T09:52:08.087Z,34.92
2019-05-05T09:54:38.644Z,35.50
2019-05-05T09:57:11.140Z,35.85
2019-05-05T09:59:43.928Z,35.85
2019-05-05T10:02:14.298Z,36.16
2019-05-05T10:04:45.030Z,36.31
2019-05-05T10:07:15.893Z,36.86
2019-05-05T10:09:46.622Z,35.83
2019-05-05T10:12:18.278Z,35.34
2019-05-05T10:14:48.804Z,35.56
2019-05-05T10:17:19.335Z,34.62
2019-05-05T10:19:49.773Z,34.41
2019-05-05T10:22:20.497Z,34.89
2019-05-05T10:24:55.138Z,34.47
2019-05-05T10:27:24.929Z,34.69
2019-05-05T10:29:55.563Z,34.29
2019-05-05T10:32:26.295Z,34.59
2019-05-05T10:35:00.999Z,34.81
2019-05-05T10:37:31.858Z,34.63
2019-05-05T10:40:03.657Z,34.32
2019-05-05T10:42:49.710Z,34.17
2019-05-05T10:45:21.362Z,34.25
2019-05-05T10:47:52.201Z,34.41
2019-05-05T10:50:24.682Z,34.44
2019-05-05T10:52:55.690Z,33.94
2019-05-05T10:55:26.242Z,34.63
2019-05-05T10:57:56.872Z,35.12
2019-05-05T11:00:29.038Z,35.00
2019-05-05T11:02:59.981Z,35.03
2019-05-05T11:05:31.713Z,34.56
2019-05-05T11:08:04.367Z,35.05
2019-05-05T11:10:36.376Z,35.49
2019-05-05T11:13:07.109Z,34.97
2019-05-05T11:15:37.919Z,33.81
2019-05-05T11:18:08.470Z,34.25
2019-05-05T11:20:39.072Z,34.44
2019-05-05T11:23:09.947Z,34.95
2019-05-05T11:25:40.466Z,35.66
2019-05-05T11:28:11.608Z,35.24
2019-05-05T11:30:44.177Z,34.75
2019-05-05T11:33:20.242Z,34.74
2019-05-05T11:36:01.831Z,35.21
2019-05-05T11:38:33.873Z,35.14
2019-05-05T11:41:05.862Z,35.26
2019-05-05T11:43:36.491Z,35.75
2019-05-05T11:46:07.328Z,35.73
2019-05-05T11:48:37.955Z,36.10
2019-05-05T11:51:08.820Z,35.54
2019-05-05T11:53:39.808Z,35.30
2019-05-05T11:56:10.261Z,35.69
2019-05-05T11:58:40.786Z,36.31
2019-05-05T12:01:13.696Z,36.07
2019-05-05T12:03:44.321Z,34.89
2019-05-05T12:06:15.248Z,35.00
2019-05-05T12:08:46.172Z,34.88
2019-05-05T12:11:18.223Z,35.42
2019-05-05T12:13:48.847Z,36.11
2019-05-05T12:16:34.510Z,36.71
2019-05-05T12:19:06.109Z,36.98
2019-05-05T12:21:36.844Z,37.16
2019-05-05T12:24:08.912Z,36.91
2019-05-05T12:26:47.013Z,37.28
2019-05-05T12:29:18.053Z,37.70
2019-05-05T12:31:49.403Z,37.93
2019-05-05T12:34:20.033Z,37.96
2019-05-05T12:36:50.562Z,37.32
2019-05-05T12:39:21.086Z,36.63
2019-05-05T12:41:54.111Z,37.09
2019-05-05T12:44:25.935Z,37.47
2019-05-05T12:47:03.832Z,37.64
2019-05-05T12:49:35.698Z,37.65
2019-05-05T12:52:06.944Z,37.30
2019-05-05T12:54:37.876Z,36.44
2019-05-05T12:57:09.479Z,36.87
2019-05-05T12:59:40.372Z,37.34
2019-05-05T13:02:11.615Z,38.14
2019-05-05T13:04:43.783Z,38.47
2019-05-05T13:07:14.718Z,38.71
2019-05-05T13:09:45.125Z,39.12
2019-05-05T13:12:15.751Z,39.22
2019-05-05T13:14:47.951Z,39.29
2019-05-05T13:17:18.475Z,38.92
2019-05-05T13:19:50.636Z,38.61
2019-05-05T13:22:26.197Z,37.44
2019-05-05T13:25:01.937Z,37.24
2019-05-05T13:27:38.608Z,36.67
2019-05-05T13:30:09.752Z,36.42
2019-05-05T13:32:40.379Z,37.19
2019-05-05T13:35:14.380Z,37.11
2019-05-05T13:37:44.399Z,38.04
2019-05-05T13:40:15.346Z,38.34
2019-05-05T13:42:45.878Z,37.85
2019-05-05T13:45:24.186Z,38.57
2019-05-05T13:47:54.916Z,38.43
2019-05-05T13:50:34.177Z,38.87
2019-05-05T13:53:06.080Z,38.69
2019-05-05T13:55:36.510Z,38.81
2019-05-05T13:58:08.782Z,38.74
2019-05-05T14:00:39.818Z,39.03
2019-05-05T14:03:10.583Z,39.00
2019-05-05T14:05:43.697Z,39.43
2019-05-05T14:08:14.820Z,39.42
2019-05-05T14:10:45.751Z,39.58
2019-05-05T14:13:16.485Z,39.59
2019-05-05T14:15:48.089Z,39.43
2019-05-05T14:18:18.973Z,39.40
2019-05-05T14:20:49.809Z,39.36
2019-05-05T14:23:20.544Z,39.28
2019-05-05T14:25:51.090Z,39.13
2019-05-05T14:28:23.572Z,39.07
2019-05-05T14:30:56.966Z,38.80
2019-05-05T14:33:29.110Z,38.46
2019-05-05T14:36:13.779Z,38.15
2019-05-05T14:38:45.936Z,38.02
2019-05-05T14:41:16.344Z,38.26
2019-05-05T14:43:47.199Z,38.17
2019-05-05T14:46:17.830Z,37.39
2019-05-05T14:48:49.616Z,37.59
2019-05-05T14:51:20.741Z,37.88
2019-05-05T14:53:51.232Z,37.84
2019-05-05T14:56:22.094Z,37.38
2019-05-05T14:58:54.341Z,37.27
2019-05-05T15:01:25.215Z,37.59
2019-05-05T15:03:56.647Z,37.90
2019-05-05T15:06:29.426Z,37.74
2019-05-05T15:09:07.943Z,37.68
2019-05-05T15:11:40.623Z,37.87
2019-05-05T15:14:11.150Z,37.85
2019-05-05T15:16:43.671Z,37.87
2019-05-05T15:19:14.580Z,37.94
2019-05-05T15:21:48.763Z,37.63
2019-05-05T15:24:18.696Z,38.07
2019-05-05T15:26:52.258Z,38.01
2019-05-05T15:29:21.391Z,38.55
2019-05-05T15:31:53.849Z,38.38
2019-05-05T15:34:24.798Z,38.36
2019-05-05T15:36:55.273Z,38.38
2019-05-05T15:39:25.760Z,38.64
2019-05-05T15:41:56.487Z,38.82
2019-05-05T15:44:27.327Z,37.89
2019-05-05T15:46:58.169Z,37.77
2019-05-05T15:49:28.892Z,38.19
2019-05-05T15:51:59.705Z,38.30
2019-05-05T15:54:30.156Z,38.02
2019-05-05T15:57:05.380Z,37.92
2019-05-05T15:59:34.506Z,37.82
2019-05-05T16:02:05.910Z,38.52
2019-05-05T16:04:36.469Z,38.69
2019-05-05T16:07:06.995Z,38.47
2019-05-05T16:09:37.523Z,38.58
2019-05-05T16:12:08.223Z,38.84
2019-05-05T16:14:41.036Z,39.46
2019-05-05T16:17:20.067Z,39.53
2019-05-05T16:19:55.375Z,39.96
2019-05-05T16:22:34.521Z,40.28
2019-05-05T16:25:17.148Z,40.43
2019-05-05T16:27:47.674Z,40.75
2019-05-05T16:30:19.743Z,40.89
2019-05-05T16:32:50.271Z,41.42
2019-05-05T16:35:21.108Z,41.72
2019-05-05T16:37:51.600Z,41.78
2019-05-05T16:40:25.289Z,42.07
2019-05-05T16:42:54.736Z,42.37
2019-05-05T16:45:26.394Z,42.69
2019-05-05T16:47:57.127Z,42.88
2019-05-05T16:50:28.680Z,43.15
2019-05-05T16:53:07.092Z,43.32
2019-05-05T16:55:39.462Z,43.43
2019-05-05T16:58:09.892Z,44.22
2019-05-05T17:00:40.930Z,44.78
2019-05-05T17:03:13.478Z,44.81
2019-05-05T17:05:46.786Z,44.93
2019-05-05T17:08:18.762Z,45.07
2019-05-05T17:10:49.292Z,45.32
2019-05-05T17:13:21.458Z,45.66
2019-05-05T17:16:04.080Z,46.25
2019-05-05T17:18:36.459Z,46.51
2019-05-05T17:21:08.812Z,47.09
2019-05-05T17:23:39.547Z,47.04
2019-05-05T17:26:10.176Z,47.23
2019-05-05T17:28:40.807Z,47.32
2019-05-05T17:31:11.542Z,47.70
2019-05-05T17:33:44.184Z,47.78
2019-05-05T17:36:25.604Z,47.37
2019-05-05T17:38:56.646Z,48.13
2019-05-05T17:41:47.447Z,48.32
2019-05-05T17:44:25.245Z,48.02
2019-05-05T17:47:13.905Z,48.35
2019-05-05T17:50:01.226Z,48.42
2019-05-05T17:52:34.386Z,49.39
2019-05-05T17:55:07.295Z,49.96
2019-05-05T17:57:37.930Z,50.20
2019-05-05T18:00:08.765Z,49.72
2019-05-05T18:02:39.598Z,49.94
2019-05-05T18:05:10.400Z,50.14
2019-05-05T18:07:44.097Z,49.79
2019-05-05T18:10:19.272Z,49.70
2019-05-05T18:12:51.513Z,49.47
2019-05-05T18:15:40.099Z,49.56
2019-05-05T18:18:10.723Z,49.11
2019-05-05T18:20:42.276Z,49.03
2019-05-05T18:23:13.848Z,49.64
2019-05-05T18:25:45.381Z,49.84
2019-05-05T18:28:19.911Z,49.65
2019-05-05T18:30:48.487Z,49.44
2019-05-05T18:33:19.118Z,49.55
2019-05-05T18:35:50.835Z,49.63
2019-05-05T18:38:23.673Z,49.57
2019-05-05T18:40:55.617Z,49.74
2019-05-05T18:43:27.786Z,49.70
2019-05-05T18:46:04.621Z,49.90
2019-05-05T18:48:34.983Z,50.04
2019-05-05T18:51:06.589Z,50.20
2019-05-05T18:53:37.985Z,50.44
2019-05-05T18:56:08.618Z,50.29
2019-05-05T18:58:39.249Z,50.65
2019-05-05T19:01:15.818Z,50.84
2019-05-05T19:04:04.257Z,51.18
2019-05-05T19:06:37.333Z,51.43
2019-05-05T19:09:09.623Z,51.90
2019-05-05T19:11:40.358Z,52.14
2019-05-05T19:14:10.785Z,52.30
2019-05-05T19:16:41.626Z,52.40
2019-05-05T19:19:14.228Z,52.24
2019-05-05T19:22:04.314Z,52.19
2019-05-05T19:24:35.480Z,52.59
2019-05-05T19:27:06.262Z,52.53
2019-05-05T19:29:39.247Z,52.57
2019-05-05T19:32:10.086Z,52.96
2019-05-05T19:34:40.611Z,53.25
2019-05-05T19:37:13.787Z,53.21
2019-05-05T19:39:43.583Z,53.33
2019-05-05T19:42:14.553Z,53.20
2019-05-05T19:44:45.086Z,53.32
2019-05-05T19:47:17.247Z,53.72
2019-05-05T19:49:55.223Z,53.61
2019-05-05T19:52:26.171Z,53.83
2019-05-05T19:54:56.716Z,54.01
2019-05-05T19:57:27.349Z,54.65
2019-05-05T19:59:57.775Z,54.80
2019-05-05T20:02:28.576Z,54.86
2019-05-05T20:04:59.036Z,55.02
2019-05-05T20:07:29.614Z,55.34
2019-05-05T20:10:00.611Z,55.33
2019-05-05T20:12:33.415Z,55.50
2019-05-05T20:15:05.861Z,56.05
2019-05-05T20:17:37.895Z,55.67
2019-05-05T20:20:08.861Z,55.93
2019-05-05T20:22:39.806Z,56.22
2019-05-05T20:25:10.338Z,56.59
2019-05-05T20:27:40.962Z,57.01
2019-05-05T20:30:14.071Z,57.14
2019-05-05T20:32:51.626Z,57.37
2019-05-05T20:35:34.622Z,57.47
2019-05-05T20:38:15.946Z,57.97
2019-05-05T20:41:04.395Z,57.97
2019-05-05T20:43:35.336Z,58.03
2019-05-05T20:46:05.860Z,58.41
2019-05-05T20:48:41.006Z,58.41
2019-05-05T20:51:10.194Z,58.39
2019-05-05T20:53:40.928Z,58.63
2019-05-05T20:56:11.762Z,58.86
2019-05-05T20:58:43.972Z,59.11
2019-05-05T21:01:14.979Z,59.30
2019-05-05T21:03:45.496Z,59.50
2019-05-05T21:06:15.996Z,59.60
2019-05-05T21:08:46.553Z,59.56
2019-05-05T21:11:17.190Z,59.89
2019-05-05T21:13:49.044Z,60.33
2019-05-05T21:16:19.779Z,60.23
2019-05-05T21:18:50.309Z,60.43
2019-05-05T21:21:24.653Z,60.22
2019-05-05T21:24:03.937Z,60.50
2019-05-05T21:26:53.446Z,60.40
2019-05-05T21:29:24.270Z,60.55
2019-05-05T21:31:55.069Z,60.80
2019-05-05T21:34:26.759Z,60.91
2019-05-05T21:36:57.494Z,60.91
2019-05-05T21:39:28.327Z,61.26
2019-05-05T21:41:59.060Z,61.32
2019-05-05T21:44:29.588Z,60.95
2019-05-05T21:47:00.227Z,60.83
2019-05-05T21:49:30.849Z,60.82
2019-05-05T21:52:14.211Z,60.74
2019-05-05T21:55:01.194Z,60.96
2019-05-05T21:57:39.506Z,61.09
2019-05-05T22:00:13.868Z,61.47
2019-05-05T22:02:46.292Z,61.83
2019-05-05T22:05:17.029Z,62.09
2019-05-05T22:07:47.967Z,61.98
2019-05-05T22:10:18.502Z,62.49
2019-05-05T22:12:49.128Z,62.25
2019-05-05T22:15:19.756Z,62.18
2019-05-05T22:17:50.285Z,62.09
2019-05-05T22:20:22.656Z,62.00
2019-05-05T22:22:54.281Z,62.11
2019-05-05T22:25:24.943Z,62.10
2019-05-05T22:27:57.302Z,62.47
2019-05-05T22:30:28.046Z,62.43
2019-05-05T22:32:58.576Z,62.10
2019-05-05T22:35:29.004Z,62.14
2019-05-05T22:37:59.633Z,62.26
2019-05-05T22:40:30.264Z,62.42
2019-05-05T22:43:00.794Z,62.62
2019-05-05T22:45:31.324Z,63.09
2019-05-05T22:48:01.851Z,62.72
2019-05-05T22:50:34.042Z,62.74
2019-05-05T22:53:04.926Z,62.86
2019-05-05T22:55:35.483Z,63.60
2019-05-05T22:58:05.909Z,63.44
2019-05-05T23:00:36.643Z,63.49
2019-05-05T23:03:13.680Z,64.11
2019-05-05T23:06:00.741Z,64.47
2019-05-05T23:08:31.474Z,64.41
2019-05-05T23:11:03.898Z,64.85
2019-05-05T23:13:34.273Z,64.94
2019-05-05T23:16:09.510Z,65.36
2019-05-05T23:18:40.041Z,65.36
2019-05-05T23:21:15.596Z,65.47
2019-05-05T23:23:56.045Z,65.71
2019-05-05T23:26:35.691Z,66.02
2019-05-05T23:29:04.065Z,66.09
2019-05-05T23:31:34.594Z,66.84
2019-05-05T23:34:05.223Z,66.98
2019-05-05T23:36:35.649Z,67.33
2019-05-05T23:39:06.557Z,67.64
2019-05-05T23:41:37.115Z,68.02
2019-05-05T23:44:07.646Z,68.31
2019-05-05T23:46:38.071Z,68.71
2019-05-05T23:49:08.395Z,68.57
2019-05-05T23:51:39.126Z,68.42
2019-05-05T23:54:10.031Z,68.63
2019-05-05T23:56:40.594Z,68.59
2019-05-05T23:59:13.543Z,68.39
